sensor_id;sensor_type;location;lat;lon;timestamp;P1;durP1;ratioP1;P2;durP2;ratioP2
8159;SDS011;27404;52.398;9.646;2023-05-10T00:00:57;4.47;;;2.27;;
8159;SDS011;27404;52.398;9.646;2023-05-10T00:03:23;3.13;;;2.33;;
8159;SDS011;27404;52.398;9.646;2023-05-10T00:05:48;7.23;;;2.20;;
8159;SDS011;27404;52.398;9.646;2023-05-10T00:08:14;4.60;;;2.70;;
8159;SDS011;27404;52.398;9.646;2023-05-10T00:10:39;4.43;;;2.50;;
8159;SDS011;27404;52.398;9.646;2023-05-10T00:13:05;7.90;;;2.20;;
8159;SDS011;27404;52.398;9.646;2023-05-10T00:15:31;3.97;;;2.60;;
8159;SDS011;27404;52.398;9.646;2023-05-10T00:17:56;4.67;;;2.50;;
8159;SDS011;27404;52.398;9.646;2023-05-10T00:20:22;3.70;;;2.37;;
8159;SDS011;27404;52.398;9.646;2023-05-10T00:22:48;3.93;;;2.40;;
8159;SDS011;27404;52.398;9.646;2023-05-10T00:25:13;3.93;;;2.37;;
8159;SDS011;27404;52.398;9.646;2023-05-10T00:27:39;3.73;;;2.30;;
8159;SDS011;27404;52.398;9.646;2023-05-10T00:30:04;5.50;;;2.13;;
8159;SDS011;27404;52.398;9.646;2023-05-10T00:32:33;5.80;;;2.30;;
8159;SDS011;27404;52.398;9.646;2023-05-10T00:34:58;3.70;;;2.07;;
8159;SDS011;27404;52.398;9.646;2023-05-10T00:37:24;4.37;;;2.40;;
8159;SDS011;27404;52.398;9.646;2023-05-10T00:39:49;4.37;;;2.30;;
8159;SDS011;27404;52.398;9.646;2023-05-10T00:42:15;4.07;;;2.40;;
8159;SDS011;27404;52.398;9.646;2023-05-10T00:44:40;4.37;;;2.50;;
8159;SDS011;27404;52.398;9.646;2023-05-10T00:47:06;4.63;;;2.50;;
8159;SDS011;27404;52.398;9.646;2023-05-10T00:49:32;3.37;;;2.33;;
8159;SDS011;27404;52.398;9.646;2023-05-10T00:51:57;4.97;;;2.20;;
8159;SDS011;27404;52.398;9.646;2023-05-10T00:54:23;4.00;;;2.60;;
8159;SDS011;27404;52.398;9.646;2023-05-10T00:56:49;5.53;;;2.70;;
8159;SDS011;27404;52.398;9.646;2023-05-10T00:59:17;5.83;;;2.63;;
8159;SDS011;27404;52.398;9.646;2023-05-10T01:01:47;5.47;;;2.50;;
8159;SDS011;27404;52.398;9.646;2023-05-10T01:04:13;5.23;;;2.50;;
8159;SDS011;27404;52.398;9.646;2023-05-10T01:06:42;4.30;;;2.77;;
8159;SDS011;27404;52.398;9.646;2023-05-10T01:09:08;3.40;;;2.40;;
8159;SDS011;27404;52.398;9.646;2023-05-10T01:11:35;3.17;;;2.50;;
8159;SDS011;27404;52.398;9.646;2023-05-10T01:14:01;3.47;;;2.40;;
8159;SDS011;27404;52.398;9.646;2023-05-10T01:16:27;7.70;;;2.70;;
8159;SDS011;27404;52.398;9.646;2023-05-10T01:18:57;5.50;;;2.87;;
8159;SDS011;27404;52.398;9.646;2023-05-10T01:38:29;7.77;;;2.80;;
8159;SDS011;27404;52.398;9.646;2023-05-10T01:41:14;4.87;;;2.63;;
8159;SDS011;27404;52.398;9.646;2023-05-10T01:46:43;6.40;;;3.00;;
8159;SDS011;27404;52.398;9.646;2023-05-10T01:49:26;7.03;;;3.00;;
8159;SDS011;27404;52.398;9.646;2023-05-10T01:51:57;5.03;;;2.90;;
8159;SDS011;27404;52.398;9.646;2023-05-10T01:54:28;4.97;;;2.80;;
8159;SDS011;27404;52.398;9.646;2023-05-10T01:56:58;3.17;;;2.50;;
8159;SDS011;27404;52.398;9.646;2023-05-10T01:59:29;4.03;;;2.67;;
8159;SDS011;27404;52.398;9.646;2023-05-10T02:02:01;6.37;;;3.00;;
8159;SDS011;27404;52.398;9.646;2023-05-10T02:04:29;4.50;;;2.97;;
8159;SDS011;27404;52.398;9.646;2023-05-10T02:06:56;5.00;;;2.53;;
8159;SDS011;27404;52.398;9.646;2023-05-10T02:09:22;11.20;;;3.13;;
8159;SDS011;27404;52.398;9.646;2023-05-10T02:11:50;4.70;;;3.00;;
8159;SDS011;27404;52.398;9.646;2023-05-10T02:14:16;4.53;;;3.17;;
8159;SDS011;27404;52.398;9.646;2023-05-10T02:16:44;5.93;;;3.03;;
8159;SDS011;27404;52.398;9.646;2023-05-10T02:19:11;5.10;;;2.90;;
8159;SDS011;27404;52.398;9.646;2023-05-10T02:21:39;5.83;;;3.13;;
8159;SDS011;27404;52.398;9.646;2023-05-10T02:24:05;4.63;;;2.90;;
8159;SDS011;27404;52.398;9.646;2023-05-10T02:26:32;5.13;;;3.07;;
8159;SDS011;27404;52.398;9.646;2023-05-10T02:29:01;5.37;;;3.40;;
8159;SDS011;27404;52.398;9.646;2023-05-10T02:31:28;6.47;;;3.10;;
8159;SDS011;27404;52.398;9.646;2023-05-10T02:33:55;3.93;;;3.00;;
8159;SDS011;27404;52.398;9.646;2023-05-10T02:36:29;7.53;;;3.50;;
8159;SDS011;27404;52.398;9.646;2023-05-10T02:38:56;5.17;;;3.47;;
8159;SDS011;27404;52.398;9.646;2023-05-10T02:41:23;5.60;;;3.00;;
8159;SDS011;27404;52.398;9.646;2023-05-10T02:43:51;6.50;;;3.17;;
8159;SDS011;27404;52.398;9.646;2023-05-10T02:46:20;4.00;;;3.10;;
8159;SDS011;27404;52.398;9.646;2023-05-10T02:48:46;5.73;;;3.50;;
8159;SDS011;27404;52.398;9.646;2023-05-10T02:51:12;6.53;;;3.20;;
8159;SDS011;27404;52.398;9.646;2023-05-10T02:53:42;9.00;;;3.77;;
8159;SDS011;27404;52.398;9.646;2023-05-10T02:56:11;4.43;;;3.10;;
8159;SDS011;27404;52.398;9.646;2023-05-10T02:58:40;11.03;;;4.23;;
8159;SDS011;27404;52.398;9.646;2023-05-10T03:01:05;6.13;;;3.37;;
8159;SDS011;27404;52.398;9.646;2023-05-10T03:03:32;4.40;;;3.23;;
8159;SDS011;27404;52.398;9.646;2023-05-10T03:05:58;4.37;;;3.63;;
8159;SDS011;27404;52.398;9.646;2023-05-10T03:08:24;4.77;;;3.30;;
8159;SDS011;27404;52.398;9.646;2023-05-10T03:13:39;5.60;;;3.60;;
8159;SDS011;27404;52.398;9.646;2023-05-10T03:16:21;8.67;;;3.40;;
8159;SDS011;27404;52.398;9.646;2023-05-10T03:18:54;5.67;;;3.73;;
8159;SDS011;27404;52.398;9.646;2023-05-10T03:21:27;5.60;;;3.57;;
8159;SDS011;27404;52.398;9.646;2023-05-10T03:24:07;6.53;;;3.87;;
8159;SDS011;27404;52.398;9.646;2023-05-10T03:26:34;6.10;;;3.60;;
8159;SDS011;27404;52.398;9.646;2023-05-10T03:29:01;7.17;;;4.00;;
8159;SDS011;27404;52.398;9.646;2023-05-10T03:31:27;7.60;;;3.93;;
8159;SDS011;27404;52.398;9.646;2023-05-10T03:33:53;6.07;;;4.13;;
8159;SDS011;27404;52.398;9.646;2023-05-10T03:36:19;5.97;;;4.00;;
8159;SDS011;27404;52.398;9.646;2023-05-10T03:38:44;5.87;;;3.80;;
8159;SDS011;27404;52.398;9.646;2023-05-10T03:41:10;5.63;;;4.77;;
8159;SDS011;27404;52.398;9.646;2023-05-10T03:43:36;7.40;;;4.23;;
8159;SDS011;27404;52.398;9.646;2023-05-10T03:46:04;4.07;;;3.57;;
8159;SDS011;27404;52.398;9.646;2023-05-10T03:48:31;6.60;;;4.00;;
8159;SDS011;27404;52.398;9.646;2023-05-10T03:50:57;6.77;;;4.33;;
8159;SDS011;27404;52.398;9.646;2023-05-10T03:53:23;6.00;;;4.20;;
8159;SDS011;27404;52.398;9.646;2023-05-10T03:55:48;7.33;;;4.37;;
8159;SDS011;27404;52.398;9.646;2023-05-10T03:58:14;5.33;;;4.03;;
8159;SDS011;27404;52.398;9.646;2023-05-10T04:00:40;5.97;;;3.87;;
8159;SDS011;27404;52.398;9.646;2023-05-10T04:03:09;5.60;;;4.20;;
8159;SDS011;27404;52.398;9.646;2023-05-10T04:05:35;7.87;;;4.53;;
8159;SDS011;27404;52.398;9.646;2023-05-10T04:08:01;9.13;;;4.43;;
8159;SDS011;27404;52.398;9.646;2023-05-10T04:10:26;6.93;;;4.03;;
8159;SDS011;27404;52.398;9.646;2023-05-10T04:12:52;7.63;;;4.40;;
8159;SDS011;27404;52.398;9.646;2023-05-10T04:15:17;6.17;;;4.97;;
8159;SDS011;27404;52.398;9.646;2023-05-10T04:17:43;6.53;;;5.03;;
8159;SDS011;27404;52.398;9.646;2023-05-10T04:20:08;9.17;;;4.70;;
8159;SDS011;27404;52.398;9.646;2023-05-10T04:22:34;9.63;;;4.73;;
8159;SDS011;27404;52.398;9.646;2023-05-10T04:24:59;8.27;;;4.93;;
8159;SDS011;27404;52.398;9.646;2023-05-10T04:27:25;6.17;;;4.47;;
8159;SDS011;27404;52.398;9.646;2023-05-10T04:29:50;7.43;;;4.73;;
8159;SDS011;27404;52.398;9.646;2023-05-10T04:32:16;5.63;;;4.17;;
8159;SDS011;27404;52.398;9.646;2023-05-10T04:34:42;6.40;;;4.83;;
8159;SDS011;27404;52.398;9.646;2023-05-10T04:37:08;10.23;;;5.23;;
8159;SDS011;27404;52.398;9.646;2023-05-10T04:39:34;6.00;;;4.97;;
8159;SDS011;27404;52.398;9.646;2023-05-10T04:42:00;6.10;;;4.77;;
8159;SDS011;27404;52.398;9.646;2023-05-10T04:44:28;6.97;;;4.90;;
8159;SDS011;27404;52.398;9.646;2023-05-10T04:46:53;5.67;;;4.77;;
8159;SDS011;27404;52.398;9.646;2023-05-10T04:49:19;6.60;;;4.70;;
8159;SDS011;27404;52.398;9.646;2023-05-10T04:51:45;8.30;;;5.43;;
8159;SDS011;27404;52.398;9.646;2023-05-10T04:54:11;7.67;;;5.63;;
8159;SDS011;27404;52.398;9.646;2023-05-10T04:56:37;5.50;;;4.50;;
8159;SDS011;27404;52.398;9.646;2023-05-10T04:59:02;7.93;;;5.13;;
8159;SDS011;27404;52.398;9.646;2023-05-10T05:01:28;11.87;;;5.73;;
8159;SDS011;27404;52.398;9.646;2023-05-10T05:03:54;6.20;;;5.27;;
8159;SDS011;27404;52.398;9.646;2023-05-10T05:06:19;6.70;;;5.90;;
8159;SDS011;27404;52.398;9.646;2023-05-10T05:08:46;10.63;;;5.97;;
8159;SDS011;27404;52.398;9.646;2023-05-10T05:11:11;7.83;;;5.90;;
8159;SDS011;27404;52.398;9.646;2023-05-10T05:13:37;7.83;;;5.33;;
8159;SDS011;27404;52.398;9.646;2023-05-10T05:16:02;7.37;;;5.60;;
8159;SDS011;27404;52.398;9.646;2023-05-10T05:18:28;8.10;;;6.10;;
8159;SDS011;27404;52.398;9.646;2023-05-10T05:20:54;7.67;;;5.70;;
8159;SDS011;27404;52.398;9.646;2023-05-10T05:23:19;9.97;;;5.83;;
8159;SDS011;27404;52.398;9.646;2023-05-10T05:25:45;6.67;;;5.80;;
8159;SDS011;27404;52.398;9.646;2023-05-10T05:28:11;8.33;;;5.93;;
8159;SDS011;27404;52.398;9.646;2023-05-10T05:30:37;7.27;;;6.17;;
8159;SDS011;27404;52.398;9.646;2023-05-10T05:33:02;8.87;;;6.17;;
8159;SDS011;27404;52.398;9.646;2023-05-10T05:35:28;9.67;;;6.03;;
8159;SDS011;27404;52.398;9.646;2023-05-10T05:37:53;8.70;;;6.20;;
8159;SDS011;27404;52.398;9.646;2023-05-10T05:40:19;8.90;;;6.23;;
8159;SDS011;27404;52.398;9.646;2023-05-10T05:42:45;11.87;;;6.53;;
8159;SDS011;27404;52.398;9.646;2023-05-10T05:45:11;7.77;;;6.60;;
8159;SDS011;27404;52.398;9.646;2023-05-10T05:47:38;9.83;;;6.93;;
8159;SDS011;27404;52.398;9.646;2023-05-10T05:50:04;8.87;;;6.27;;
8159;SDS011;27404;52.398;9.646;2023-05-10T05:52:30;9.50;;;6.60;;
8159;SDS011;27404;52.398;9.646;2023-05-10T05:54:56;7.43;;;6.27;;
8159;SDS011;27404;52.398;9.646;2023-05-10T05:57:21;9.43;;;6.70;;
8159;SDS011;27404;52.398;9.646;2023-05-10T05:59:46;10.77;;;6.90;;
8159;SDS011;27404;52.398;9.646;2023-05-10T06:02:12;8.07;;;6.53;;
8159;SDS011;27404;52.398;9.646;2023-05-10T06:04:37;7.17;;;6.07;;
8159;SDS011;27404;52.398;9.646;2023-05-10T06:07:03;11.93;;;6.87;;
8159;SDS011;27404;52.398;9.646;2023-05-10T06:09:29;9.30;;;6.87;;
8159;SDS011;27404;52.398;9.646;2023-05-10T06:11:54;9.27;;;6.80;;
8159;SDS011;27404;52.398;9.646;2023-05-10T06:14:20;9.37;;;7.00;;
8159;SDS011;27404;52.398;9.646;2023-05-10T06:16:46;11.07;;;7.17;;
8159;SDS011;27404;52.398;9.646;2023-05-10T06:19:11;9.60;;;7.73;;
8159;SDS011;27404;52.398;9.646;2023-05-10T06:21:37;10.97;;;7.87;;
8159;SDS011;27404;52.398;9.646;2023-05-10T06:24:03;11.47;;;7.70;;
8159;SDS011;27404;52.398;9.646;2023-05-10T06:26:28;11.17;;;7.87;;
8159;SDS011;27404;52.398;9.646;2023-05-10T06:28:54;9.07;;;7.50;;
8159;SDS011;27404;52.398;9.646;2023-05-10T06:31:19;10.50;;;7.37;;
8159;SDS011;27404;52.398;9.646;2023-05-10T06:33:45;9.57;;;7.90;;
8159;SDS011;27404;52.398;9.646;2023-05-10T06:36:11;9.73;;;7.37;;
8159;SDS011;27404;52.398;9.646;2023-05-10T06:38:36;11.00;;;8.03;;
8159;SDS011;27404;52.398;9.646;2023-05-10T06:41:02;10.93;;;7.27;;
8159;SDS011;27404;52.398;9.646;2023-05-10T06:43:28;13.00;;;8.10;;
8159;SDS011;27404;52.398;9.646;2023-05-10T06:45:53;11.07;;;7.57;;
8159;SDS011;27404;52.398;9.646;2023-05-10T06:48:19;10.83;;;7.90;;
8159;SDS011;27404;52.398;9.646;2023-05-10T06:50:44;8.50;;;7.30;;
8159;SDS011;27404;52.398;9.646;2023-05-10T06:53:10;10.30;;;7.70;;
8159;SDS011;27404;52.398;9.646;2023-05-10T06:55:37;11.43;;;8.40;;
8159;SDS011;27404;52.398;9.646;2023-05-10T06:58:02;10.23;;;7.83;;
8159;SDS011;27404;52.398;9.646;2023-05-10T07:00:28;7.90;;;7.03;;
8159;SDS011;27404;52.398;9.646;2023-05-10T07:02:53;12.47;;;8.23;;
8159;SDS011;27404;52.398;9.646;2023-05-10T07:05:18;10.50;;;8.10;;
8159;SDS011;27404;52.398;9.646;2023-05-10T07:07:44;12.10;;;8.23;;
8159;SDS011;27404;52.398;9.646;2023-05-10T07:10:10;10.20;;;7.57;;
8159;SDS011;27404;52.398;9.646;2023-05-10T07:12:35;8.93;;;6.93;;
8159;SDS011;27404;52.398;9.646;2023-05-10T07:15:01;10.20;;;7.43;;
8159;SDS011;27404;52.398;9.646;2023-05-10T07:17:26;9.63;;;7.20;;
8159;SDS011;27404;52.398;9.646;2023-05-10T07:19:52;10.80;;;7.30;;
8159;SDS011;27404;52.398;9.646;2023-05-10T07:22:17;10.03;;;7.60;;
8159;SDS011;27404;52.398;9.646;2023-05-10T07:24:43;9.13;;;6.43;;
8159;SDS011;27404;52.398;9.646;2023-05-10T07:27:08;10.33;;;6.70;;
8159;SDS011;27404;52.398;9.646;2023-05-10T07:29:34;8.70;;;7.17;;
8159;SDS011;27404;52.398;9.646;2023-05-10T07:32:00;9.23;;;7.07;;
8159;SDS011;27404;52.398;9.646;2023-05-10T07:34:26;8.60;;;6.33;;
8159;SDS011;27404;52.398;9.646;2023-05-10T07:36:52;8.30;;;6.33;;
8159;SDS011;27404;52.398;9.646;2023-05-10T07:39:17;7.03;;;5.90;;
8159;SDS011;27404;52.398;9.646;2023-05-10T07:41:43;8.43;;;6.63;;
8159;SDS011;27404;52.398;9.646;2023-05-10T07:44:08;44.47;;;16.70;;
8159;SDS011;27404;52.398;9.646;2023-05-10T07:46:34;75.67;;;20.03;;
8159;SDS011;27404;52.398;9.646;2023-05-10T07:48:59;13.67;;;8.03;;
8159;SDS011;27404;52.398;9.646;2023-05-10T07:51:25;9.57;;;5.77;;
8159;SDS011;27404;52.398;9.646;2023-05-10T07:53:50;6.60;;;5.70;;
8159;SDS011;27404;52.398;9.646;2023-05-10T07:56:25;9.37;;;5.90;;
8159;SDS011;27404;52.398;9.646;2023-05-10T07:58:56;5.37;;;4.30;;
8159;SDS011;27404;52.398;9.646;2023-05-10T08:01:23;4.20;;;3.73;;
8159;SDS011;27404;52.398;9.646;2023-05-10T08:03:48;3.93;;;3.23;;
8159;SDS011;27404;52.398;9.646;2023-05-10T08:06:16;4.90;;;4.00;;
8159;SDS011;27404;52.398;9.646;2023-05-10T08:08:43;4.53;;;3.43;;
8159;SDS011;27404;52.398;9.646;2023-05-10T08:11:10;4.37;;;3.10;;
8159;SDS011;27404;52.398;9.646;2023-05-10T08:13:36;6.80;;;3.43;;
8159;SDS011;27404;52.398;9.646;2023-05-10T08:16:01;4.43;;;3.00;;
8159;SDS011;27404;52.398;9.646;2023-05-10T08:18:27;3.23;;;2.33;;
8159;SDS011;27404;52.398;9.646;2023-05-10T08:20:53;3.20;;;2.37;;
8159;SDS011;27404;52.398;9.646;2023-05-10T08:23:18;3.47;;;2.50;;
8159;SDS011;27404;52.398;9.646;2023-05-10T08:25:44;2.47;;;2.10;;
8159;SDS011;27404;52.398;9.646;2023-05-10T08:28:09;3.60;;;2.20;;
8159;SDS011;27404;52.398;9.646;2023-05-10T08:30:35;2.70;;;2.03;;
8159;SDS011;27404;52.398;9.646;2023-05-10T08:33:00;3.33;;;2.33;;
8159;SDS011;27404;52.398;9.646;2023-05-10T08:35:26;3.00;;;2.70;;
8159;SDS011;27404;52.398;9.646;2023-05-10T08:37:51;2.93;;;2.27;;
8159;SDS011;27404;52.398;9.646;2023-05-10T08:40:17;2.70;;;2.40;;
8159;SDS011;27404;52.398;9.646;2023-05-10T08:42:47;2.97;;;2.57;;
8159;SDS011;27404;52.398;9.646;2023-05-10T08:45:19;4.23;;;2.57;;
8159;SDS011;27404;52.398;9.646;2023-05-10T08:47:49;4.30;;;2.57;;
8159;SDS011;27404;52.398;9.646;2023-05-10T08:50:17;2.83;;;2.33;;
8159;SDS011;27404;52.398;9.646;2023-05-10T08:52:45;2.93;;;2.63;;
8159;SDS011;27404;52.398;9.646;2023-05-10T08:55:13;4.67;;;2.97;;
8159;SDS011;27404;52.398;9.646;2023-05-10T08:57:39;3.27;;;2.60;;
8159;SDS011;27404;52.398;9.646;2023-05-10T09:00:05;4.13;;;3.40;;
8159;SDS011;27404;52.398;9.646;2023-05-10T09:02:31;3.13;;;2.53;;
8159;SDS011;27404;52.398;9.646;2023-05-10T09:04:56;4.67;;;3.07;;
8159;SDS011;27404;52.398;9.646;2023-05-10T09:07:22;3.60;;;3.13;;
8159;SDS011;27404;52.398;9.646;2023-05-10T09:09:47;3.73;;;3.10;;
8159;SDS011;27404;52.398;9.646;2023-05-10T09:12:13;3.20;;;2.80;;
8159;SDS011;27404;52.398;9.646;2023-05-10T09:14:41;6.03;;;3.63;;
8159;SDS011;27404;52.398;9.646;2023-05-10T09:17:09;4.90;;;3.70;;
8159;SDS011;27404;52.398;9.646;2023-05-10T09:19:35;5.10;;;2.93;;
8159;SDS011;27404;52.398;9.646;2023-05-10T09:22:00;3.63;;;2.97;;
8159;SDS011;27404;52.398;9.646;2023-05-10T09:24:28;4.37;;;3.40;;
8159;SDS011;27404;52.398;9.646;2023-05-10T09:26:56;4.33;;;3.47;;
8159;SDS011;27404;52.398;9.646;2023-05-10T09:29:22;3.83;;;3.40;;
8159;SDS011;27404;52.398;9.646;2023-05-10T09:31:48;4.57;;;3.20;;
8159;SDS011;27404;52.398;9.646;2023-05-10T09:34:20;5.00;;;3.63;;
8159;SDS011;27404;52.398;9.646;2023-05-10T09:36:57;3.70;;;3.00;;
8159;SDS011;27404;52.398;9.646;2023-05-10T09:39:30;3.03;;;2.73;;
8159;SDS011;27404;52.398;9.646;2023-05-10T09:41:57;3.77;;;3.10;;
8159;SDS011;27404;52.398;9.646;2023-05-10T09:44:25;5.53;;;3.93;;
8159;SDS011;27404;52.398;9.646;2023-05-10T09:46:51;4.93;;;3.20;;
8159;SDS011;27404;52.398;9.646;2023-05-10T09:49:18;3.30;;;2.73;;
8159;SDS011;27404;52.398;9.646;2023-05-10T09:51:44;3.33;;;2.83;;
8159;SDS011;27404;52.398;9.646;2023-05-10T09:54:14;4.13;;;2.90;;
8159;SDS011;27404;52.398;9.646;2023-05-10T09:56:41;4.17;;;2.77;;
8159;SDS011;27404;52.398;9.646;2023-05-10T09:59:11;3.77;;;3.20;;
8159;SDS011;27404;52.398;9.646;2023-05-10T10:01:37;3.83;;;3.07;;
8159;SDS011;27404;52.398;9.646;2023-05-10T10:04:04;3.83;;;3.30;;
8159;SDS011;27404;52.398;9.646;2023-05-10T10:06:37;3.03;;;2.73;;
8159;SDS011;27404;52.398;9.646;2023-05-10T10:09:04;3.97;;;2.87;;
8159;SDS011;27404;52.398;9.646;2023-05-10T10:11:31;4.30;;;3.10;;
8159;SDS011;27404;52.398;9.646;2023-05-10T10:14:00;5.00;;;3.17;;
8159;SDS011;27404;52.398;9.646;2023-05-10T10:16:26;3.63;;;3.13;;
8159;SDS011;27404;52.398;9.646;2023-05-10T10:18:54;4.20;;;3.50;;
8159;SDS011;27404;52.398;9.646;2023-05-10T10:21:20;6.33;;;3.33;;
8159;SDS011;27404;52.398;9.646;2023-05-10T10:23:46;5.57;;;3.20;;
8159;SDS011;27404;52.398;9.646;2023-05-10T10:26:12;3.87;;;3.20;;
8159;SDS011;27404;52.398;9.646;2023-05-10T10:31:13;4.43;;;3.00;;
8159;SDS011;27404;52.398;9.646;2023-05-10T10:36:42;4.13;;;3.47;;
8159;SDS011;27404;52.398;9.646;2023-05-10T10:39:10;5.00;;;3.00;;
8159;SDS011;27404;52.398;9.646;2023-05-10T10:41:49;3.77;;;2.87;;
8159;SDS011;27404;52.398;9.646;2023-05-10T10:57:24;5.60;;;2.83;;
8159;SDS011;27404;52.398;9.646;2023-05-10T10:59:51;5.20;;;2.83;;
8159;SDS011;27404;52.398;9.646;2023-05-10T11:02:52;4.63;;;3.03;;
8159;SDS011;27404;52.398;9.646;2023-05-10T11:07:59;6.00;;;3.53;;
8159;SDS011;27404;52.398;9.646;2023-05-10T11:10:26;7.67;;;3.50;;
8159;SDS011;27404;52.398;9.646;2023-05-10T11:12:52;3.33;;;2.67;;
8159;SDS011;27404;52.398;9.646;2023-05-10T11:15:19;5.07;;;3.10;;
8159;SDS011;27404;52.398;9.646;2023-05-10T11:17:45;4.60;;;3.37;;
8159;SDS011;27404;52.398;9.646;2023-05-10T11:20:16;5.27;;;3.00;;
8159;SDS011;27404;52.398;9.646;2023-05-10T11:22:54;6.40;;;3.40;;
8159;SDS011;27404;52.398;9.646;2023-05-10T11:25:20;4.87;;;3.27;;
8159;SDS011;27404;52.398;9.646;2023-05-10T11:27:51;3.77;;;3.10;;
8159;SDS011;27404;52.398;9.646;2023-05-10T11:30:17;5.73;;;3.37;;
8159;SDS011;27404;52.398;9.646;2023-05-10T11:32:42;4.23;;;2.70;;
8159;SDS011;27404;52.398;9.646;2023-05-10T11:35:12;4.20;;;3.07;;
8159;SDS011;27404;52.398;9.646;2023-05-10T11:37:40;6.00;;;3.10;;
8159;SDS011;27404;52.398;9.646;2023-05-10T11:40:09;5.10;;;2.90;;
8159;SDS011;27404;52.398;9.646;2023-05-10T11:42:37;4.70;;;3.33;;
8159;SDS011;27404;52.398;9.646;2023-05-10T11:45:03;3.70;;;2.70;;
8159;SDS011;27404;52.398;9.646;2023-05-10T11:47:30;7.87;;;3.47;;
8159;SDS011;27404;52.398;9.646;2023-05-10T11:49:55;5.90;;;3.40;;
8159;SDS011;27404;52.398;9.646;2023-05-10T11:52:22;4.50;;;3.00;;
8159;SDS011;27404;52.398;9.646;2023-05-10T11:54:51;3.90;;;3.40;;
8159;SDS011;27404;52.398;9.646;2023-05-10T11:57:18;3.93;;;2.83;;
8159;SDS011;27404;52.398;9.646;2023-05-10T11:59:45;4.67;;;3.00;;
8159;SDS011;27404;52.398;9.646;2023-05-10T12:02:18;4.63;;;3.00;;
8159;SDS011;27404;52.398;9.646;2023-05-10T12:04:43;3.80;;;3.33;;
8159;SDS011;27404;52.398;9.646;2023-05-10T12:07:09;5.60;;;3.27;;
8159;SDS011;27404;52.398;9.646;2023-05-10T12:09:34;5.57;;;3.77;;
8159;SDS011;27404;52.398;9.646;2023-05-10T12:12:00;4.10;;;3.17;;
8159;SDS011;27404;52.398;9.646;2023-05-10T12:14:27;5.25;;;3.60;;
8159;SDS011;27404;52.398;9.646;2023-05-10T12:16:53;4.47;;;3.35;;
8159;SDS011;27404;52.398;9.646;2023-05-10T12:19:22;4.20;;;3.38;;
8159;SDS011;27404;52.398;9.646;2023-05-10T12:21:47;6.97;;;4.60;;
8159;SDS011;27404;52.398;9.646;2023-05-10T12:24:13;5.00;;;3.95;;
8159;SDS011;27404;52.398;9.646;2023-05-10T12:26:41;5.57;;;4.40;;
8159;SDS011;27404;52.398;9.646;2023-05-10T12:29:14;6.57;;;3.70;;
8159;SDS011;27404;52.398;9.646;2023-05-10T12:31:53;5.50;;;4.03;;
8159;SDS011;27404;52.398;9.646;2023-05-10T12:34:23;5.00;;;4.27;;
8159;SDS011;27404;52.398;9.646;2023-05-10T12:36:51;6.67;;;3.70;;
8159;SDS011;27404;52.398;9.646;2023-05-10T12:39:18;5.23;;;3.73;;
8159;SDS011;27404;52.398;9.646;2023-05-10T12:41:43;6.50;;;3.80;;
8159;SDS011;27404;52.398;9.646;2023-05-10T12:44:08;5.07;;;3.93;;
8159;SDS011;27404;52.398;9.646;2023-05-10T12:46:36;6.05;;;3.90;;
8159;SDS011;27404;52.398;9.646;2023-05-10T12:49:02;9.93;;;4.00;;
8159;SDS011;27404;52.398;9.646;2023-05-10T12:51:27;7.33;;;4.27;;
8159;SDS011;27404;52.398;9.646;2023-05-10T12:53:53;6.85;;;4.38;;
8159;SDS011;27404;52.398;9.646;2023-05-10T12:56:19;6.23;;;3.90;;
8159;SDS011;27404;52.398;9.646;2023-05-10T12:58:45;4.70;;;3.70;;
8159;SDS011;27404;52.398;9.646;2023-05-10T13:01:13;7.63;;;4.90;;
8159;SDS011;27404;52.398;9.646;2023-05-10T13:03:39;6.93;;;4.30;;
8159;SDS011;27404;52.398;9.646;2023-05-10T13:06:04;5.27;;;3.70;;
8159;SDS011;27404;52.398;9.646;2023-05-10T13:08:31;5.88;;;3.47;;
8159;SDS011;27404;52.398;9.646;2023-05-10T13:10:58;3.88;;;3.25;;
8159;SDS011;27404;52.398;9.646;2023-05-10T13:13:24;10.50;;;5.32;;
8159;SDS011;27404;52.398;9.646;2023-05-10T13:15:50;5.05;;;3.60;;
8159;SDS011;27404;52.398;9.646;2023-05-10T13:18:15;6.47;;;4.40;;
8159;SDS011;27404;52.398;9.646;2023-05-10T13:20:41;5.75;;;3.92;;
8159;SDS011;27404;52.398;9.646;2023-05-10T13:23:08;5.45;;;4.05;;
8159;SDS011;27404;52.398;9.646;2023-05-10T13:25:33;5.50;;;4.30;;
8159;SDS011;27404;52.398;9.646;2023-05-10T13:27:59;7.30;;;4.40;;
8159;SDS011;27404;52.398;9.646;2023-05-10T13:30:25;7.13;;;3.77;;
8159;SDS011;27404;52.398;9.646;2023-05-10T13:32:50;7.75;;;4.97;;
8159;SDS011;27404;52.398;9.646;2023-05-10T13:35:16;5.88;;;3.88;;
8159;SDS011;27404;52.398;9.646;2023-05-10T13:37:41;6.20;;;3.80;;
8159;SDS011;27404;52.398;9.646;2023-05-10T13:40:07;9.07;;;4.60;;
8159;SDS011;27404;52.398;9.646;2023-05-10T13:42:32;9.70;;;4.60;;
8159;SDS011;27404;52.398;9.646;2023-05-10T13:44:58;6.90;;;4.87;;
8159;SDS011;27404;52.398;9.646;2023-05-10T13:47:25;11.37;;;6.37;;
8159;SDS011;27404;52.398;9.646;2023-05-10T13:49:50;8.77;;;6.27;;
8159;SDS011;27404;52.398;9.646;2023-05-10T13:52:16;7.40;;;5.87;;
8159;SDS011;27404;52.398;9.646;2023-05-10T13:54:41;11.57;;;6.20;;
8159;SDS011;27404;52.398;9.646;2023-05-10T13:57:07;9.27;;;6.60;;
8159;SDS011;27404;52.398;9.646;2023-05-10T13:59:32;10.27;;;6.40;;
8159;SDS011;27404;52.398;9.646;2023-05-10T14:01:58;7.33;;;5.40;;
8159;SDS011;27404;52.398;9.646;2023-05-10T14:04:24;6.80;;;5.50;;
8159;SDS011;27404;52.398;9.646;2023-05-10T14:06:50;8.17;;;6.00;;
8159;SDS011;27404;52.398;9.646;2023-05-10T14:09:15;10.03;;;7.10;;
8159;SDS011;27404;52.398;9.646;2023-05-10T14:11:41;12.13;;;6.70;;
8159;SDS011;27404;52.398;9.646;2023-05-10T14:14:10;7.97;;;5.87;;
8159;SDS011;27404;52.398;9.646;2023-05-10T14:16:37;10.83;;;6.43;;
8159;SDS011;27404;52.398;9.646;2023-05-10T14:19:03;8.87;;;6.83;;
8159;SDS011;27404;52.398;9.646;2023-05-10T14:21:28;14.30;;;7.47;;
8159;SDS011;27404;52.398;9.646;2023-05-10T14:23:55;11.67;;;7.60;;
8159;SDS011;27404;52.398;9.646;2023-05-10T14:26:21;12.13;;;7.63;;
8159;SDS011;27404;52.398;9.646;2023-05-10T14:28:47;11.57;;;7.93;;
8159;SDS011;27404;52.398;9.646;2023-05-10T14:31:12;9.93;;;7.00;;
8159;SDS011;27404;52.398;9.646;2023-05-10T14:33:39;11.73;;;7.90;;
8159;SDS011;27404;52.398;9.646;2023-05-10T14:36:05;14.50;;;7.77;;
8159;SDS011;27404;52.398;9.646;2023-05-10T14:38:31;12.40;;;8.10;;
8159;SDS011;27404;52.398;9.646;2023-05-10T14:40:56;12.43;;;7.63;;
8159;SDS011;27404;52.398;9.646;2023-05-10T14:43:22;13.80;;;7.87;;
8159;SDS011;27404;52.398;9.646;2023-05-10T14:45:48;13.23;;;8.73;;
8159;SDS011;27404;52.398;9.646;2023-05-10T14:48:13;11.13;;;8.40;;
8159;SDS011;27404;52.398;9.646;2023-05-10T14:50:42;11.83;;;8.20;;
8159;SDS011;27404;52.398;9.646;2023-05-10T14:53:07;15.13;;;9.30;;
8159;SDS011;27404;52.398;9.646;2023-05-10T14:55:33;11.80;;;8.37;;
8159;SDS011;27404;52.398;9.646;2023-05-10T14:58:00;14.88;;;9.82;;
8159;SDS011;27404;52.398;9.646;2023-05-10T15:00:27;15.97;;;9.60;;
8159;SDS011;27404;52.398;9.646;2023-05-10T15:02:54;17.00;;;9.80;;
8159;SDS011;27404;52.398;9.646;2023-05-10T15:05:19;13.57;;;9.20;;
8159;SDS011;27404;52.398;9.646;2023-05-10T15:07:45;13.23;;;9.40;;
8159;SDS011;27404;52.398;9.646;2023-05-10T15:10:10;15.70;;;10.20;;
8159;SDS011;27404;52.398;9.646;2023-05-10T15:12:37;11.50;;;8.63;;
8159;SDS011;27404;52.398;9.646;2023-05-10T15:15:03;13.63;;;9.00;;
8159;SDS011;27404;52.398;9.646;2023-05-10T15:17:30;12.47;;;8.30;;
8159;SDS011;27404;52.398;9.646;2023-05-10T15:19:55;14.70;;;9.57;;
8159;SDS011;27404;52.398;9.646;2023-05-10T15:22:21;12.47;;;8.80;;
8159;SDS011;27404;52.398;9.646;2023-05-10T15:24:47;14.80;;;9.27;;
8159;SDS011;27404;52.398;9.646;2023-05-10T15:27:12;13.17;;;8.17;;
8159;SDS011;27404;52.398;9.646;2023-05-10T15:29:38;10.67;;;7.13;;
8159;SDS011;27404;52.398;9.646;2023-05-10T15:32:03;10.97;;;7.70;;
8159;SDS011;27404;52.398;9.646;2023-05-10T15:34:29;11.80;;;8.10;;
8159;SDS011;27404;52.398;9.646;2023-05-10T15:36:54;12.33;;;8.70;;
8159;SDS011;27404;52.398;9.646;2023-05-10T15:39:20;13.30;;;8.83;;